Terminal Aerodrome Forecast
Issued by NWS

Home | Current Version | Previous Version | Text Only | Print | Product List | Glossary On
Versions: 1 2 3 4 5 6 7 8 9 10 11 12
000
FTUS42 TJSJ 202344
TAFNCM
TAF
TNCM 202344Z 2100/2124 08015KT P6SM VCSH SCT016 SCT022
      TEMPO 2101/2104 -SHRA BKN022
     FM211600 10012KT P6SM FEW018 SCT040=

USA.gov is the U.S. government's official web portal to all federal, state and local government web resources and services.